Weather reports worldwide

Advertisment
Lons-Le-Saunier, France (7390): temperature & dewpoint: 12.01.2020 13:00:00 - 18.01.2020 13:00:00 (CET)Lons-Le-Saunier, France (7390): wind speed & gusts: 12.01.2020 13:00:00 - 18.01.2020 13:00:00 (CET)Lons-Le-Saunier, France (7390): wind direction: 12.01.2020 13:00:00 - 18.01.2020 13:00:00 (CET)Lons-Le-Saunier, France (7390): precipitation: 12.01.2020 13:00:00 - 18.01.2020 13:00:00 (CET)
Date & Time tt [°C] td [°C] ff [km/h] ff [kn] fx [km/h] fx [kn] dd rr [mm]
18.01.2020 13:00:00 - - - - - - - -
18.01.2020 12:00:00 6,0 3,0 8 4 13 7 SW 0,0
18.01.2020 11:00:00 4,9 2,9 5 3 9 5 SSW 0,0
18.01.2020 10:00:00 4,1 2,8 5 3 11 6 SE 0,0
18.01.2020 09:00:00 2,5 1,3 8 4 9 5 SSE 0,0
18.01.2020 08:00:00 2,4 1,4 9 5 13 7 SE 0,0
18.01.2020 07:00:00 2,6 1,6 9 5 13 7 SSE -
18.01.2020 06:00:00 3,3 2,3 9 5 13 7 S 0,0
18.01.2020 05:00:00 4,0 2,3 11 6 21 11 SW 0,0
18.01.2020 04:00:00 4,1 2,6 13 7 24 13 SW 0,0
18.01.2020 03:00:00 3,8 2,5 13 7 26 14 SSW 0,0
18.01.2020 02:00:00 4,3 3,0 15 8 22 12 SSW 0,0
18.01.2020 01:00:00 5,1 3,8 16 9 29 16 SW -
18.01.2020 00:00:00 5,5 4,9 15 8 24 13 SSW 0,0
17.01.2020 23:00:00 6,0 5,4 13 7 22 12 SSW 0,0
17.01.2020 22:00:00 6,3 5,7 13 7 18 10 SSW 0,0
17.01.2020 21:00:00 6,4 6,0 9 5 22 12 SSW 0,0
17.01.2020 20:00:00 6,6 6,3 16 9 21 11 SW 0,4
17.01.2020 19:00:00 6,8 6,4 15 8 22 12 SW -
17.01.2020 18:00:00 7,7 6,8 16 9 24 13 SW 0,2
17.01.2020 17:00:00 8,3 7,5 9 5 18 10 SSW 0,0
17.01.2020 16:00:00 8,4 7,6 11 6 18 10 SSW 0,0
17.01.2020 15:00:00 7,6 6,7 9 5 15 8 S 0,4
17.01.2020 14:00:00 7,2 6,5 11 6 26 14 SE 4,0
17.01.2020 13:00:00 8,3 7,4 8 4 22 12 S -
17.01.2020 12:00:00 8,8 7,2 15 8 42 23 SSW 2,0
17.01.2020 11:00:00 10,2 6,2 24 13 46 25 SSW 0,0
17.01.2020 10:00:00 10,9 4,8 26 14 65 35 S 0,0
17.01.2020 09:00:00 11,0 4,4 29 16 52 28 S 0,0
17.01.2020 08:00:00 10,9 3,9 29 16 50 27 S 0,0
17.01.2020 07:00:00 10,5 3,7 26 14 46 25 S -
17.01.2020 06:00:00 10,1 3,4 22 12 46 25 S 0,0
17.01.2020 05:00:00 10,0 3,5 21 11 57 31 S 0,0
17.01.2020 04:00:00 10,2 3,5 29 16 55 30 S 0,0
17.01.2020 03:00:00 10,1 3,4 22 12 41 22 S 0,0
17.01.2020 02:00:00 10,5 3,7 26 14 44 24 S 0,0
17.01.2020 01:00:00 10,4 4,3 28 15 44 24 S -
17.01.2020 00:00:00 10,1 4,2 22 12 55 30 S 0,0
16.01.2020 23:00:00 9,6 3,8 22 12 44 24 S 0,0
16.01.2020 22:00:00 8,9 3,5 16 9 31 17 SSE 0,0
16.01.2020 21:00:00 8,7 3,3 15 8 28 15 SSE 0,0
16.01.2020 20:00:00 9,4 2,7 15 8 29 16 SSE 0,0
16.01.2020 19:00:00 9,0 2,8 13 7 18 10 SSE -
16.01.2020 18:00:00 10,8 3,1 13 7 22 12 S 0,0
16.01.2020 17:00:00 11,9 3,4 16 9 26 14 S 0,0
16.01.2020 16:00:00 12,8 5,2 13 7 29 16 SW 0,0
16.01.2020 15:00:00 12,8 5,2 22 12 31 17 WSW 0,0
16.01.2020 14:00:00 13,5 4,6 13 7 28 15 S 0,0
16.01.2020 13:00:00 13,0 4,7 15 8 28 15 SSW -
16.01.2020 12:00:00 12,1 4,8 11 6 21 11 S 0,0
16.01.2020 11:00:00 11,2 4,6 8 4 13 7 SE 0,0
16.01.2020 10:00:00 9,0 4,0 8 4 15 8 SE 0,0
16.01.2020 09:00:00 7,0 2,9 8 4 11 6 ESE 0,0
16.01.2020 08:00:00 6,5 2,8 9 5 13 7 SE 0,0
16.01.2020 07:00:00 7,3 3,0 9 5 13 7 ESE -
16.01.2020 06:00:00 8,1 3,4 9 5 13 7 SE 0,0
16.01.2020 05:00:00 9,3 3,7 8 4 13 7 SSE 0,0
16.01.2020 04:00:00 9,7 3,9 8 4 22 12 SSE 0,0
16.01.2020 03:00:00 9,6 4,2 9 5 34 18 S 0,0
16.01.2020 02:00:00 10,3 4,4 13 7 29 16 S 0,0
16.01.2020 01:00:00 10,5 4,6 13 7 34 18 SSW -
16.01.2020 00:00:00 10,9 4,6 16 9 31 17 S 0,0
15.01.2020 23:00:00 10,8 4,7 21 11 35 19 S 0,0
15.01.2020 22:00:00 10,9 4,6 18 10 48 26 S 0,0
15.01.2020 21:00:00 11,1 4,5 26 14 52 28 S 0,0
15.01.2020 20:00:00 11,0 4,7 24 13 50 27 S 0,0
15.01.2020 19:00:00 11,0 4,7 26 14 50 27 S -
15.01.2020 18:00:00 11,2 4,9 29 16 63 34 S 0,0
15.01.2020 17:00:00 11,8 4,7 29 16 61 33 SSW 0,0
15.01.2020 16:00:00 12,7 5,1 39 21 83 45 SSW 0,0
15.01.2020 15:00:00 12,9 4,8 46 25 83 45 SSW 0,0
15.01.2020 14:00:00 12,4 5,5 35 19 67 36 S 0,0
15.01.2020 13:00:00 12,8 5,0 37 20 67 36 SSW -
15.01.2020 12:00:00 12,4 4,1 41 22 72 39 SSW 0,0
15.01.2020 11:00:00 11,8 3,8 35 19 61 33 SSW 0,0
15.01.2020 10:00:00 11,4 3,2 34 18 63 34 SSW 0,0
15.01.2020 09:00:00 10,4 2,7 31 17 61 33 S 0,0
15.01.2020 08:00:00 10,4 3,0 35 19 67 36 S 0,0
15.01.2020 07:00:00 10,3 2,9 35 19 57 31 SSW -
15.01.2020 06:00:00 10,4 3,0 28 15 55 30 S 0,0
15.01.2020 05:00:00 10,7 2,8 28 15 61 33 S 0,0
15.01.2020 04:00:00 10,5 2,6 37 20 74 40 SSW 0,0
15.01.2020 03:00:00 10,7 2,8 35 19 67 36 S 0,0
15.01.2020 02:00:00 10,7 3,0 37 20 68 37 S 0,0
15.01.2020 01:00:00 10,6 2,9 31 17 63 34 S -
15.01.2020 00:00:00 10,7 2,8 34 18 59 32 S 0,0
14.01.2020 23:00:00 10,7 2,8 28 15 63 34 S 0,0
14.01.2020 22:00:00 10,6 2,9 22 12 65 35 S 0,0
14.01.2020 21:00:00 10,7 3,0 29 16 65 35 S 0,0
14.01.2020 20:00:00 10,3 2,9 21 11 48 26 S 0,0
14.01.2020 19:00:00 10,4 3,0 26 14 46 25 S -
14.01.2020 18:00:00 10,6 3,1 16 9 44 24 S 0,0
14.01.2020 17:00:00 11,5 3,5 24 13 46 25 S 0,0
14.01.2020 16:00:00 11,8 4,0 22 12 46 25 S 0,0
14.01.2020 15:00:00 11,7 3,7 28 15 52 28 S 0,0
14.01.2020 14:00:00 11,8 3,5 34 18 59 32 S 0,0
14.01.2020 13:00:00 12,0 4,0 26 14 59 32 S -
14.01.2020 12:00:00 11,5 4,0 34 18 61 33 S 0,0
14.01.2020 11:00:00 10,6 3,4 29 16 57 31 S 0,0
14.01.2020 10:00:00 9,6 3,3 26 14 54 29 S 0,0
14.01.2020 09:00:00 8,7 2,9 26 14 55 30 S 0,0
14.01.2020 08:00:00 8,0 2,4 24 13 52 28 S 0,0
14.01.2020 07:00:00 7,8 1,6 22 12 48 26 S -
14.01.2020 06:00:00 7,8 1,4 26 14 44 24 S 0,0
14.01.2020 05:00:00 7,5 1,6 21 11 44 24 S 0,0
14.01.2020 04:00:00 7,7 1,7 24 13 48 26 S 0,0
14.01.2020 03:00:00 8,0 2,0 29 16 48 26 S 0,0
14.01.2020 02:00:00 7,4 2,3 18 10 41 22 SSW 0,0
14.01.2020 01:00:00 7,5 2,4 22 12 48 26 S -
14.01.2020 00:00:00 7,5 2,4 18 10 35 19 S 0,0
13.01.2020 23:00:00 7,8 2,3 21 11 41 22 S 0,0
13.01.2020 22:00:00 8,0 1,6 18 10 39 21 S 0,0
13.01.2020 21:00:00 7,8 1,2 16 9 35 19 S 0,0
13.01.2020 20:00:00 7,4 0,6 16 9 31 17 S 0,0
13.01.2020 19:00:00 6,0 0,7 4 2 18 10 SW -
13.01.2020 18:00:00 7,4 1,2 9 5 15 8 S 0,0
13.01.2020 17:00:00 6,8 2,7 9 5 15 8 SE 0,0
13.01.2020 16:00:00 8,3 4,3 9 5 15 8 WSW 0,0
13.01.2020 15:00:00 8,5 4,3 4 2 18 10 SW 0,0
13.01.2020 14:00:00 7,1 4,6 9 5 16 9 WSW 0,0
13.01.2020 13:00:00 5,9 3,9 9 5 15 8 SW -
13.01.2020 12:00:00 5,7 3,7 5 3 9 5 WSW 0,0
13.01.2020 11:00:00 4,1 3,1 8 4 11 6 S 0,0
13.01.2020 10:00:00 4,2 2,7 4 2 21 11 S 0,0
13.01.2020 09:00:00 3,2 1,7 15 8 21 11 SE 0,0
13.01.2020 08:00:00 2,8 0,7 8 4 13 7 SE 0,0
13.01.2020 07:00:00 2,6 0,3 8 4 11 6 SE -
13.01.2020 06:00:00 2,8 0,4 9 5 16 9 SE 0,0
13.01.2020 05:00:00 3,1 0,8 9 5 16 9 ESE 0,0
13.01.2020 04:00:00 2,5 0,4 8 4 15 8 SE 0,0
13.01.2020 03:00:00 2,9 0,9 8 4 16 9 SE 0,0
13.01.2020 02:00:00 2,7 0,8 8 4 16 9 ESE 0,0
13.01.2020 01:00:00 2,7 1,1 11 6 15 8 ESE -
13.01.2020 00:00:00 2,7 1,1 8 4 13 7 ESE 0,0
12.01.2020 23:00:00 2,9 1,4 9 5 13 7 ESE 0,0
12.01.2020 22:00:00 2,9 1,7 9 5 11 6 ESE 0,0
12.01.2020 21:00:00 3,2 1,9 8 4 9 5 ESE 0,0
12.01.2020 20:00:00 3,4 2,1 8 4 9 5 ESE 0,0
12.01.2020 19:00:00 4,0 2,3 5 3 8 4 ESE -
12.01.2020 18:00:00 5,0 2,2 4 2 5 3 WSW 0,0
12.01.2020 17:00:00 5,7 2,5 4 2 11 6 SW 0,0
12.01.2020 16:00:00 6,4 2,8 5 3 13 7 SSW 0,0
12.01.2020 15:00:00 7,0 2,9 11 6 18 10 SSW 0,0
12.01.2020 14:00:00 6,6 2,5 9 5 21 11 SSW 0,0
12.01.2020 13:00:00 6,0 2,3 11 6 22 12 SSW -

tt = temperature
td = dewpoint
ff = wind speed
fx = gusts
dd = wind direction
rr = precipitation

Next stations